createdAt,value
2024-04-17T00:02:29.605Z,97532.66
2024-04-17T00:05:32.312Z,97545.50
2024-04-17T00:08:37.868Z,97538.34
2024-04-17T00:11:43.416Z,97532.63
2024-04-17T00:14:49.032Z,97545.88
2024-04-17T00:17:52.813Z,97555.66
2024-04-17T00:21:01.956Z,97546.09
2024-04-17T00:24:05.099Z,97547.13
2024-04-17T00:27:13.601Z,97548.34
2024-04-17T00:30:18.757Z,97551.16
2024-04-17T00:33:22.293Z,97576.00
2024-04-17T00:36:27.885Z,97592.38
2024-04-17T00:39:30.589Z,97584.66
2024-04-17T00:42:38.624Z,97573.19
2024-04-17T00:45:44.206Z,97563.38
2024-04-17T00:48:49.591Z,97570.81
2024-04-17T00:51:53.816Z,97564.56
2024-04-17T00:55:12.762Z,97546.38
2024-04-17T00:58:42.604Z,97538.88
2024-04-17T01:01:45.683Z,97535.66
2024-04-17T01:04:51.379Z,97531.41
2024-04-17T01:07:54.646Z,97524.16
2024-04-17T01:11:04.148Z,97529.03
2024-04-17T01:14:17.933Z,97545.63
2024-04-17T01:17:30.426Z,97538.91
2024-04-17T01:20:39.230Z,97527.66
2024-04-17T01:23:44.996Z,97541.38
2024-04-17T01:26:50.359Z,97551.38
2024-04-17T01:29:55.761Z,97530.22
2024-04-17T01:32:58.669Z,97511.31
2024-04-17T01:36:04.130Z,97501.75
2024-04-17T01:39:09.513Z,97513.13
2024-04-17T01:42:15.012Z,97510.91
2024-04-17T01:45:20.456Z,97503.56
2024-04-17T01:48:49.183Z,97488.75
2024-04-17T01:51:57.774Z,97490.97
2024-04-17T01:55:02.335Z,97490.78
2024-04-17T01:58:13.948Z,97488.94
2024-04-17T02:01:16.720Z,97496.06
2024-04-17T02:04:22.562Z,97498.72
2024-04-17T02:07:25.373Z,97493.81
2024-04-17T02:10:30.768Z,97493.59
2024-04-17T02:13:38.884Z,97493.81
2024-04-17T02:16:41.831Z,97496.34
2024-04-17T02:19:47.403Z,97501.47
2024-04-17T02:22:54.612Z,97507.03
2024-04-17T02:25:58.494Z,97506.03
2024-04-17T02:29:09.824Z,97498.63
2024-04-17T02:32:15.714Z,97500.50
2024-04-17T02:35:18.578Z,97505.16
2024-04-17T02:38:23.972Z,97516.13
2024-04-17T02:41:26.694Z,97532.97
2024-04-17T02:44:35.272Z,97542.00
2024-04-17T02:47:44.818Z,97538.38
2024-04-17T02:50:56.783Z,97537.13
2024-04-17T02:54:02.728Z,97541.63
2024-04-17T02:57:10.919Z,97532.00
2024-04-17T03:00:20.610Z,97528.78
2024-04-17T03:03:23.565Z,97528.19
2024-04-17T03:06:31.850Z,97524.31
2024-04-17T03:09:34.385Z,97542.44
2024-04-17T03:12:42.730Z,97539.78
2024-04-17T03:15:50.670Z,97537.91
2024-04-17T03:18:56.015Z,97537.75
2024-04-17T03:22:01.559Z,97532.22
2024-04-17T03:25:04.825Z,97541.41
2024-04-17T03:28:11.332Z,97527.16
2024-04-17T03:31:16.824Z,97539.38
2024-04-17T03:34:22.249Z,97531.22
2024-04-17T03:37:27.650Z,97538.72
2024-04-17T03:40:33.092Z,97535.25
2024-04-17T03:43:38.669Z,97536.50
2024-04-17T03:46:47.516Z,97536.13
2024-04-17T03:49:57.791Z,97538.75
2024-04-17T03:53:00.706Z,97544.69
2024-04-17T03:56:07.253Z,97541.81
2024-04-17T03:59:15.396Z,97546.31
2024-04-17T04:02:23.701Z,97549.97
2024-04-17T04:05:26.531Z,97540.41
2024-04-17T04:08:31.938Z,97545.06
2024-04-17T04:11:34.848Z,97556.47
2024-04-17T04:14:40.219Z,97545.91
2024-04-17T04:17:46.578Z,97542.44
2024-04-17T04:20:52.002Z,97543.03
2024-04-17T04:23:54.729Z,97548.16
2024-04-17T04:27:00.178Z,97543.66
2024-04-17T04:30:02.954Z,97560.34
2024-04-17T04:33:12.826Z,97563.56
2024-04-17T04:36:15.694Z,97563.94
2024-04-17T04:39:21.028Z,97561.50
2024-04-17T04:42:23.797Z,97565.78
2024-04-17T04:45:29.243Z,97568.41
2024-04-17T04:48:37.369Z,97579.84
2024-04-17T04:51:40.057Z,97581.28
2024-04-17T04:54:45.477Z,97575.34
2024-04-17T04:57:48.208Z,97585.94
2024-04-17T05:00:53.674Z,97577.78
2024-04-17T05:04:00.018Z,97578.19
2024-04-17T05:07:05.497Z,97579.00
2024-04-17T05:10:11.238Z,97584.63
2024-04-17T05:13:16.603Z,97585.34
2024-04-17T05:16:22.068Z,97581.06
2024-04-17T05:19:27.552Z,97578.03
2024-04-17T05:22:33.258Z,97577.19
2024-04-17T05:25:39.250Z,97580.06
2024-04-17T05:28:42.063Z,97578.66
2024-04-17T05:31:47.698Z,97575.56
2024-04-17T05:34:54.154Z,97566.59
2024-04-17T05:38:00.146Z,97559.06
2024-04-17T05:41:02.905Z,97559.69
2024-04-17T05:44:08.431Z,97563.38
2024-04-17T05:47:11.252Z,97571.50
2024-04-17T05:50:19.589Z,97582.94
2024-04-17T05:53:22.437Z,97588.00
2024-04-17T05:56:27.987Z,97585.94
2024-04-17T05:59:30.766Z,97584.97
2024-04-17T06:02:36.311Z,97569.50
2024-04-17T06:05:41.777Z,97575.00
2024-04-17T06:08:48.887Z,97571.34
2024-04-17T06:11:54.599Z,97556.69
2024-04-17T06:15:00.071Z,97561.56
2024-04-17T06:18:02.998Z,97563.81
2024-04-17T06:21:11.314Z,97551.59
2024-04-17T06:24:14.050Z,97565.66
2024-04-17T06:27:19.495Z,97562.56
2024-04-17T06:30:24.992Z,97550.34
2024-04-17T06:33:27.817Z,97563.78
2024-04-17T06:36:35.939Z,97570.09
2024-04-17T06:39:38.899Z,97553.03
2024-04-17T06:42:44.293Z,97565.59
2024-04-17T06:45:47.541Z,97567.81
2024-04-17T06:48:54.985Z,97580.63
2024-04-17T06:52:00.655Z,97584.94
2024-04-17T06:55:06.745Z,97595.34
2024-04-17T06:58:12.191Z,97605.09
2024-04-17T07:01:14.994Z,97594.84
2024-04-17T07:04:22.760Z,97600.06
2024-04-17T07:07:30.953Z,97595.78
2024-04-17T07:10:33.759Z,97603.03
2024-04-17T07:13:39.158Z,97600.28
2024-04-17T07:16:42.011Z,97594.44
2024-04-17T07:19:47.495Z,97594.84
2024-04-17T07:22:55.829Z,97585.63
2024-04-17T07:26:01.601Z,97590.09
2024-04-17T07:29:04.610Z,97590.56
2024-04-17T07:32:10.458Z,97586.81
2024-04-17T07:35:13.481Z,97588.66
2024-04-17T07:38:23.193Z,97581.72
2024-04-17T07:41:29.239Z,97580.16
2024-04-17T07:44:35.322Z,97576.50
2024-04-17T07:47:38.842Z,97582.06
2024-04-17T07:50:45.000Z,97583.75
2024-04-17T07:53:50.603Z,97580.53
2024-04-17T07:56:56.811Z,97578.88
2024-04-17T08:00:01.421Z,97585.81
2024-04-17T08:03:09.713Z,97580.28
2024-04-17T08:06:13.822Z,97584.13
2024-04-17T08:09:21.808Z,97584.22
2024-04-17T08:12:24.687Z,97594.72
2024-04-17T08:15:30.086Z,97594.59
2024-04-17T08:18:35.796Z,97592.28
2024-04-17T08:21:41.133Z,97591.84
2024-04-17T08:24:46.669Z,97589.91
2024-04-17T08:27:52.066Z,97585.81
2024-04-17T08:30:54.859Z,97586.69
2024-04-17T08:34:00.303Z,97597.53
2024-04-17T08:37:05.925Z,97592.38
2024-04-17T08:40:16.394Z,97600.16
2024-04-17T08:43:26.048Z,97592.06
2024-04-17T08:46:32.414Z,97601.59
2024-04-17T08:49:35.753Z,97593.53
2024-04-17T08:52:42.215Z,97606.06
2024-04-17T08:55:54.340Z,97620.69
2024-04-17T08:59:00.308Z,97611.38
2024-04-17T09:02:07.051Z,97602.69
2024-04-17T09:05:10.372Z,97610.09
2024-04-17T09:08:17.247Z,97605.00
2024-04-17T09:11:26.301Z,97604.09
2024-04-17T09:14:33.202Z,97613.63
2024-04-17T09:17:38.918Z,97625.31
2024-04-17T09:20:44.316Z,97623.88
2024-04-17T09:23:51.626Z,97632.81
2024-04-17T09:27:00.146Z,97649.16
2024-04-17T09:30:05.574Z,97653.19
2024-04-17T09:33:12.444Z,97640.44
2024-04-17T09:36:15.467Z,97638.66
2024-04-17T09:39:20.896Z,97626.91
2024-04-17T09:42:26.657Z,97630.59
2024-04-17T09:45:36.809Z,97625.59
2024-04-17T09:48:42.651Z,97632.59
2024-04-17T09:51:50.287Z,97625.47
2024-04-17T09:54:57.116Z,97625.88
2024-04-17T09:58:03.618Z,97626.03
2024-04-17T10:01:11.724Z,97625.75
2024-04-17T10:04:16.855Z,97629.03
2024-04-17T10:07:25.735Z,97632.75
2024-04-17T10:10:31.994Z,97638.22
2024-04-17T10:13:40.452Z,97635.81
2024-04-17T10:16:46.132Z,97632.84
2024-04-17T10:19:51.982Z,97627.13
2024-04-17T10:23:06.022Z,97625.44
2024-04-17T10:26:12.989Z,97617.09
2024-04-17T10:29:22.143Z,97624.50
2024-04-17T10:32:25.309Z,97625.75
2024-04-17T10:35:33.950Z,97625.34
2024-04-17T10:41:48.610Z,97623.47
2024-04-17T10:44:57.067Z,97616.88
2024-04-17T10:48:03.470Z,97626.63
2024-04-17T10:51:06.539Z,97635.47
2024-04-17T10:54:14.400Z,97629.13
2024-04-17T10:57:18.102Z,97635.84
2024-04-17T11:00:26.169Z,97641.59
2024-04-17T11:03:28.964Z,97645.19
2024-04-17T11:06:35.366Z,97655.59
2024-04-17T11:09:42.724Z,97657.25
2024-04-17T11:12:48.138Z,97651.56
2024-04-17T11:15:56.188Z,97667.41
2024-04-17T11:19:02.060Z,97660.59
2024-04-17T11:22:09.057Z,97665.25
2024-04-17T11:25:18.526Z,97666.81
2024-04-17T11:28:21.508Z,97673.78
2024-04-17T11:31:29.939Z,97673.50
2024-04-17T11:34:32.827Z,97667.88
2024-04-17T11:37:38.223Z,97669.78
2024-04-17T11:40:47.152Z,97672.06
2024-04-17T11:43:52.586Z,97674.72
2024-04-17T11:46:58.057Z,97673.47
2024-04-17T11:50:03.640Z,97675.78
2024-04-17T11:53:07.051Z,97677.78
2024-04-17T11:56:12.560Z,97677.16
2024-04-17T11:59:15.417Z,97669.66
2024-04-17T12:02:24.428Z,97670.91
2024-04-17T12:05:27.915Z,97666.56
2024-04-17T12:08:33.721Z,97671.47
2024-04-17T12:11:37.741Z,97678.41
2024-04-17T12:14:44.360Z,97683.91
2024-04-17T12:17:50.065Z,97682.25
2024-04-17T12:20:55.599Z,97672.66
2024-04-17T12:23:58.391Z,97685.13
2024-04-17T12:27:03.789Z,97680.78
2024-04-17T12:30:10.013Z,97676.09
2024-04-17T12:33:19.823Z,97681.38
2024-04-17T12:36:25.639Z,97684.09
2024-04-17T12:39:31.073Z,97691.75
2024-04-17T12:42:36.493Z,97688.56
2024-04-17T12:45:41.996Z,97694.28
2024-04-17T12:48:50.470Z,97700.81
2024-04-17T12:51:55.914Z,97697.59
2024-04-17T12:55:01.300Z,97699.88
2024-04-17T12:58:08.607Z,97699.44
2024-04-17T13:01:13.998Z,97687.75
2024-04-17T13:04:19.448Z,97700.34
2024-04-17T13:07:24.822Z,97694.38
2024-04-17T13:10:31.202Z,97691.88
2024-04-17T13:13:34.024Z,97689.06
2024-04-17T13:16:39.520Z,97696.34
2024-04-17T13:19:48.198Z,97699.69
2024-04-17T13:23:03.427Z,97696.91
2024-04-17T13:26:10.717Z,97706.88
2024-04-17T13:29:16.314Z,97702.88
2024-04-17T13:32:19.150Z,97716.47
2024-04-17T13:35:27.178Z,97711.94
2024-04-17T13:38:32.999Z,97720.28
2024-04-17T13:41:39.078Z,97722.09
2024-04-17T13:44:41.778Z,97729.88
2024-04-17T13:47:47.233Z,97729.84
2024-04-17T13:50:58.669Z,97730.59
2024-04-17T13:54:04.120Z,97731.16
2024-04-17T13:57:09.570Z,97734.94
2024-04-17T14:00:13.051Z,97733.28
2024-04-17T14:03:18.642Z,97730.47
2024-04-17T14:06:24.119Z,97734.75
2024-04-17T14:09:29.551Z,97733.16
2024-04-17T14:12:32.341Z,97732.03
2024-04-17T14:15:38.652Z,97739.78
2024-04-17T14:18:42.467Z,97730.00
2024-04-17T14:21:50.564Z,97731.13
2024-04-17T14:24:56.515Z,97739.00
2024-04-17T14:28:00.108Z,97730.84
2024-04-17T14:31:06.956Z,97741.81
2024-04-17T14:34:09.706Z,97748.59
2024-04-17T14:37:17.807Z,97739.53
2024-04-17T14:40:22.255Z,97746.69
2024-04-17T14:43:28.257Z,97742.09
2024-04-17T14:46:33.625Z,97744.81
2024-04-17T14:49:36.584Z,97753.97
2024-04-17T14:52:44.601Z,97752.44
2024-04-17T14:55:47.282Z,97753.31
2024-04-17T14:58:52.658Z,97750.19
2024-04-17T15:01:55.668Z,97756.88
2024-04-17T15:05:01.069Z,97757.06
2024-04-17T15:08:06.487Z,97763.28
2024-04-17T15:11:13.257Z,97758.34
2024-04-17T15:14:18.948Z,97761.44
2024-04-17T15:17:21.746Z,97773.13
2024-04-17T15:20:27.211Z,97768.00
2024-04-17T15:23:33.089Z,97777.00
2024-04-17T15:26:38.638Z,97776.59
2024-04-17T15:29:45.147Z,97784.50
2024-04-17T15:33:09.866Z,97772.28
2024-04-17T15:36:17.274Z,97781.03
2024-04-17T15:39:27.201Z,97775.03
2024-04-17T15:42:30.083Z,97779.06
2024-04-17T15:45:35.666Z,97782.78
2024-04-17T15:48:38.774Z,97790.88
2024-04-17T15:51:44.624Z,97787.38
2024-04-17T15:54:50.076Z,97784.88
2024-04-17T15:57:55.447Z,97783.06
2024-04-17T16:01:02.319Z,97793.47
2024-04-17T16:04:07.910Z,97785.13
2024-04-17T16:07:10.667Z,97787.56
2024-04-17T16:10:19.136Z,97797.44
2024-04-17T16:13:21.634Z,97796.44
2024-04-17T16:16:28.485Z,97793.19
2024-04-17T16:19:32.569Z,97800.72
2024-04-17T16:22:38.314Z,97815.78
2024-04-17T16:25:48.070Z,97836.41
2024-04-17T16:29:07.553Z,97838.56
2024-04-17T16:32:12.102Z,97826.34
2024-04-17T16:35:39.301Z,97834.66
2024-04-17T16:38:49.062Z,97840.19
2024-04-17T16:41:55.014Z,97839.16
2024-04-17T16:45:00.923Z,97845.31
2024-04-17T16:48:05.103Z,97852.66
2024-04-17T16:51:11.770Z,97863.03
2024-04-17T16:54:14.771Z,97862.19
2024-04-17T16:57:22.838Z,97866.31
2024-04-17T17:00:25.792Z,97869.75
2024-04-17T17:03:31.292Z,97870.16
2024-04-17T17:06:36.935Z,97881.53
2024-04-17T17:09:39.896Z,97888.06
2024-04-17T17:12:50.780Z,97890.88
2024-04-17T17:16:00.780Z,97890.28
2024-04-17T17:19:06.477Z,97893.19
2024-04-17T17:22:12.553Z,97895.19
2024-04-17T17:25:18.284Z,97893.97
2024-04-17T17:28:26.679Z,97897.09
2024-04-17T17:31:32.410Z,97899.91
2024-04-17T17:34:35.750Z,97906.22
2024-04-17T17:37:46.014Z,97900.69
2024-04-17T17:40:51.705Z,97908.47
2024-04-17T17:43:57.642Z,97902.28
2024-04-17T17:47:03.525Z,97911.09
2024-04-17T17:50:10.637Z,97910.25
2024-04-17T17:53:16.565Z,97903.75
2024-04-17T17:56:24.419Z,97917.78
2024-04-17T17:59:30.341Z,97921.06
2024-04-17T18:07:56.858Z,97926.09
2024-04-17T18:11:00.322Z,97920.38
2024-04-17T18:14:08.907Z,97907.66
2024-04-17T18:17:16.103Z,97920.91
2024-04-17T18:20:21.969Z,97925.09
2024-04-17T18:23:25.508Z,97926.09
2024-04-17T18:26:32.183Z,97930.63
2024-04-17T18:29:57.948Z,97936.88
2024-04-17T18:33:09.655Z,97925.69
2024-04-17T18:36:19.652Z,97931.56
2024-04-17T18:39:26.705Z,97928.09
2024-04-17T18:42:34.509Z,97936.09
2024-04-17T18:45:37.858Z,97936.31
2024-04-17T18:48:58.675Z,97929.97
2024-04-17T18:52:02.718Z,97943.53
2024-04-17T18:55:09.375Z,97951.25
2024-04-17T18:58:12.389Z,97965.38
2024-04-17T19:01:22.919Z,97964.69
2024-04-17T19:04:30.087Z,97969.44
2024-04-17T19:07:37.874Z,97966.13
2024-04-17T19:10:41.529Z,97963.72
2024-04-17T19:13:47.491Z,97969.81
2024-04-17T19:16:55.890Z,97974.81
2024-04-17T19:20:01.539Z,97977.31
2024-04-17T19:23:07.723Z,97989.47
2024-04-17T19:26:10.953Z,97984.19
2024-04-17T19:29:34.097Z,97979.34
2024-04-17T19:32:46.645Z,97975.53
2024-04-17T19:35:53.137Z,97981.53
2024-04-17T19:39:02.626Z,97979.91
2024-04-17T19:42:14.944Z,97985.81
2024-04-17T19:45:26.841Z,97983.06
2024-04-17T19:48:30.790Z,97986.22
2024-04-17T19:51:43.921Z,97982.84
2024-04-17T19:54:49.928Z,97994.00
2024-04-17T19:57:55.403Z,97982.56
2024-04-17T20:01:03.694Z,97980.47
2024-04-17T20:04:09.316Z,97978.13
2024-04-17T20:07:20.553Z,97981.75
2024-04-17T20:10:24.492Z,97984.19
2024-04-17T20:13:32.059Z,97988.34
2024-04-17T20:16:34.988Z,97991.06
2024-04-17T20:19:40.616Z,97997.25
2024-04-17T20:22:49.350Z,98001.94
2024-04-17T20:26:00.811Z,97999.78
2024-04-17T20:29:07.903Z,97991.88
2024-04-17T20:32:11.270Z,98000.53
2024-04-17T20:35:16.920Z,98001.78
2024-04-17T20:38:25.287Z,98006.50
2024-04-17T20:41:31.897Z,98015.53
2024-04-17T20:44:34.549Z,98020.38
2024-04-17T20:47:40.364Z,98022.63
2024-04-17T20:50:43.193Z,98029.06
2024-04-17T20:53:51.274Z,98039.75
2024-04-17T20:56:54.194Z,98038.59
2024-04-17T21:00:02.727Z,98047.34
2024-04-17T21:03:07.761Z,98051.47
2024-04-17T21:06:17.166Z,98055.31
2024-04-17T21:09:22.691Z,98045.59
2024-04-17T21:12:28.649Z,98059.47
2024-04-17T21:15:32.543Z,98066.78
2024-04-17T21:18:39.481Z,98067.41
2024-04-17T21:21:47.866Z,98076.19
2024-04-17T21:24:58.119Z,98076.41
2024-04-17T21:28:03.681Z,98063.97
2024-04-17T21:31:10.233Z,98072.75
2024-04-17T21:34:16.007Z,98068.47
2024-04-17T21:37:19.621Z,98065.81
2024-04-17T21:40:27.748Z,98071.75
2024-04-17T21:43:31.617Z,98072.75
2024-04-17T21:46:37.156Z,98077.47
2024-04-17T21:49:40.135Z,98074.41
2024-04-17T21:52:48.153Z,98079.09
2024-04-17T21:56:00.849Z,98079.31
2024-04-17T21:59:06.514Z,98064.81
2024-04-17T22:02:09.356Z,98070.13
2024-04-17T22:05:15.497Z,98072.16
2024-04-17T22:08:22.656Z,98073.19
2024-04-17T22:11:29.367Z,98068.50
2024-04-17T22:14:34.958Z,98066.03
2024-04-17T22:17:42.637Z,98071.75
2024-04-17T22:20:48.356Z,98068.47
2024-04-17T22:23:51.078Z,98081.75
2024-04-17T22:27:04.867Z,98084.78
2024-04-17T22:30:09.350Z,98092.56
2024-04-17T22:33:17.482Z,98095.63
2024-04-17T22:36:20.930Z,98099.91
2024-04-17T22:39:26.695Z,98099.91
2024-04-17T22:42:32.502Z,98103.81
2024-04-17T22:45:39.232Z,98103.38
2024-04-17T22:48:44.216Z,98111.31
2024-04-17T22:51:52.732Z,98118.84
2024-04-17T22:54:55.492Z,98121.09
2024-04-17T22:58:06.395Z,98118.22
2024-04-17T23:01:14.810Z,98128.56
2024-04-17T23:04:20.169Z,98123.28
2024-04-17T23:07:22.896Z,98133.06
2024-04-17T23:10:31.283Z,98121.22
2024-04-17T23:13:36.919Z,98115.50
2024-04-17T23:16:42.392Z,98118.88
2024-04-17T23:19:45.655Z,98129.66
2024-04-17T23:22:53.984Z,98143.56
2024-04-17T23:25:56.858Z,98143.50
2024-04-17T23:29:05.441Z,98143.66
2024-04-17T23:32:08.735Z,98144.53
2024-04-17T23:35:14.387Z,98155.63
2024-04-17T23:38:38.971Z,98149.72
2024-04-17T23:41:41.827Z,98152.44
2024-04-17T23:44:50.146Z,98162.38
2024-04-17T23:47:53.150Z,98168.81
2024-04-17T23:50:59.277Z,98178.31
2024-04-17T23:54:01.988Z,98168.19
2024-04-17T23:57:08.001Z,98165.94
